createdAt,value
2022-09-21T03:14:51.210Z,97.13
2022-09-21T03:17:53.650Z,97.13
2022-09-21T03:20:55.691Z,100.00
2022-09-21T03:23:58.029Z,100.00
2022-09-21T03:27:00.063Z,99.56
2022-09-21T03:30:02.795Z,99.36
2022-09-21T03:33:06.082Z,99.38
2022-09-21T03:36:09.482Z,99.41
2022-09-21T03:39:11.544Z,99.30
2022-09-21T03:42:14.057Z,98.99
2022-09-21T03:45:16.406Z,98.79
2022-09-21T03:48:18.927Z,99.84
2022-09-21T03:51:20.994Z,100.00
2022-09-21T03:54:23.304Z,100.00
2022-09-21T03:57:25.614Z,100.00
2022-09-21T04:00:28.489Z,100.00
2022-09-21T04:03:30.825Z,100.00
2022-09-21T04:06:32.919Z,100.00
2022-09-21T04:09:35.282Z,100.00
2022-09-21T04:12:37.517Z,100.00
2022-09-21T04:15:39.863Z,100.00
2022-09-21T04:18:41.909Z,100.00
2022-09-21T04:21:44.580Z,100.00
2022-09-21T04:24:46.729Z,98.54
2022-09-21T04:27:49.086Z,97.19
2022-09-21T04:30:55.629Z,96.81
2022-09-21T04:33:58.390Z,98.04
2022-09-21T04:37:00.437Z,98.35
2022-09-21T04:40:04.059Z,97.67
2022-09-21T04:43:06.164Z,98.60
2022-09-21T04:46:10.702Z,98.73
2022-09-21T04:49:12.836Z,99.96
2022-09-21T04:52:18.974Z,99.95
2022-09-21T04:55:21.338Z,99.40
2022-09-21T04:58:24.690Z,99.93
2022-09-21T05:01:27.779Z,99.86
2022-09-21T05:04:30.194Z,99.25
2022-09-21T05:07:32.239Z,99.80
2022-09-21T05:10:34.819Z,100.00
2022-09-21T05:13:36.862Z,100.00
2022-09-21T05:16:39.193Z,100.00
2022-09-21T05:19:41.233Z,100.00
2022-09-21T05:22:43.530Z,100.00
2022-09-21T05:25:45.566Z,100.00
2022-09-21T05:28:48.105Z,100.00
2022-09-21T05:32:03.187Z,100.00
2022-09-21T05:35:31.704Z,97.92
2022-09-21T05:38:33.984Z,99.27
2022-09-21T05:41:36.789Z,97.67
2022-09-21T05:44:39.163Z,98.48
2022-09-21T05:47:47.474Z,95.32
2022-09-21T05:50:58.476Z,94.94
2022-09-21T05:54:11.442Z,95.58
2022-09-21T05:57:30.504Z,95.36
2022-09-21T06:00:47.848Z,94.60
2022-09-21T06:03:50.379Z,93.25
2022-09-21T06:06:52.634Z,90.82
2022-09-21T06:09:54.954Z,89.19
2022-09-21T06:12:57.397Z,87.78
2022-09-21T06:16:03.682Z,87.97
2022-09-21T06:19:05.952Z,87.50
2022-09-21T06:22:08.436Z,88.05
2022-09-21T06:25:10.574Z,89.36
2022-09-21T06:28:13.208Z,89.13
2022-09-21T06:31:15.253Z,85.49
2022-09-21T06:34:18.217Z,78.99
2022-09-21T06:37:20.254Z,76.54
2022-09-21T06:40:22.597Z,73.31
2022-09-21T06:43:24.713Z,68.56
2022-09-21T06:46:27.069Z,69.21
2022-09-21T06:49:29.152Z,64.53
2022-09-21T06:52:31.527Z,66.13
2022-09-21T06:55:34.502Z,62.72
2022-09-21T06:58:38.145Z,63.59
2022-09-21T07:01:40.346Z,64.71
2022-09-21T07:04:43.150Z,62.58
2022-09-21T07:07:46.146Z,61.36
2022-09-21T07:10:49.302Z,64.70
2022-09-21T07:13:51.451Z,63.31
2022-09-21T07:16:53.764Z,61.05
2022-09-21T07:19:55.801Z,63.09
2022-09-21T07:22:58.233Z,61.93
2022-09-21T07:26:09.252Z,62.08
2022-09-21T07:29:12.051Z,61.33
2022-09-21T07:32:14.106Z,61.67
2022-09-21T07:35:16.449Z,59.91
2022-09-21T07:38:18.585Z,61.03
2022-09-21T07:41:21.231Z,60.97
2022-09-21T07:44:23.314Z,61.56
2022-09-21T07:47:25.878Z,59.98
2022-09-21T07:50:27.941Z,60.90
2022-09-21T07:53:31.930Z,60.62
2022-09-21T07:56:33.974Z,60.95
2022-09-21T07:59:36.340Z,61.20
2022-09-21T08:02:40.132Z,60.70
2022-09-21T08:05:45.085Z,60.27
2022-09-21T08:08:48.210Z,60.34
2022-09-21T08:11:51.853Z,60.21
2022-09-21T08:14:53.902Z,59.38
2022-09-21T08:17:57.828Z,59.39
2022-09-21T08:21:00.704Z,58.48
2022-09-21T08:24:03.286Z,59.77
2022-09-21T08:27:05.441Z,59.99
2022-09-21T08:30:08.715Z,59.76
2022-09-21T08:33:10.782Z,60.23
2022-09-21T08:36:13.672Z,59.86
2022-09-21T08:39:15.757Z,57.39
2022-09-21T08:42:39.413Z,58.78
2022-09-21T08:45:44.756Z,57.74
2022-09-21T08:48:54.395Z,56.88
2022-09-21T08:51:59.847Z,55.93
2022-09-21T08:55:20.356Z,56.45
2022-09-21T08:58:25.238Z,56.64
2022-09-21T09:02:03.282Z,57.01
2022-09-21T09:05:25.856Z,56.54
2022-09-21T09:08:48.230Z,57.86
2022-09-21T09:12:19.351Z,57.23
2022-09-21T09:15:40.116Z,57.58
2022-09-21T09:18:51.450Z,56.26
2022-09-21T09:21:56.260Z,55.96
2022-09-21T09:25:05.920Z,55.86
2022-09-21T09:28:14.677Z,54.29
2022-09-21T09:31:25.217Z,54.32
2022-09-21T09:34:38.106Z,54.74
2022-09-21T09:37:42.736Z,56.26
2022-09-21T09:41:03.513Z,54.22
2022-09-21T09:44:42.672Z,53.29
2022-09-21T09:48:13.042Z,53.52
2022-09-21T09:51:15.072Z,53.35
2022-09-21T09:54:18.940Z,53.37
2022-09-21T09:57:29.074Z,53.91
2022-09-21T10:00:31.413Z,53.75
2022-09-21T10:03:33.733Z,53.20
2022-09-21T10:06:40.158Z,53.76
2022-09-21T10:09:46.051Z,53.85
2022-09-21T10:12:49.743Z,50.83
2022-09-21T10:15:57.007Z,49.56
2022-09-21T10:19:03.350Z,50.44
2022-09-21T10:22:05.828Z,50.38
2022-09-21T10:25:16.694Z,48.39
2022-09-21T10:28:22.653Z,49.63
2022-09-21T10:31:31.231Z,50.33
2022-09-21T10:34:35.116Z,51.99
2022-09-21T10:37:42.434Z,52.29
2022-09-21T10:40:46.257Z,53.47
2022-09-21T10:43:50.788Z,54.49
2022-09-21T10:50:00.224Z,53.42
2022-09-21T10:53:30.195Z,52.05
2022-09-21T10:56:32.258Z,45.55
2022-09-21T10:59:37.219Z,44.64
2022-09-21T11:02:39.654Z,34.32
2022-09-21T11:05:45.280Z,27.64
2022-09-21T11:09:01.163Z,20.48
2022-09-21T11:12:23.227Z,17.53
2022-09-21T11:15:36.768Z,15.36
2022-09-21T11:19:13.254Z,14.06
2022-09-21T11:22:38.085Z,15.06
2022-09-21T11:25:48.348Z,15.77
2022-09-21T11:29:07.010Z,23.80
2022-09-21T11:32:33.663Z,32.70
2022-09-21T11:35:44.285Z,33.70
2022-09-21T11:39:17.814Z,26.21
2022-09-21T11:42:40.606Z,31.98
2022-09-21T11:46:11.717Z,36.31
2022-09-21T11:49:45.015Z,38.02
2022-09-21T11:52:52.997Z,38.91
2022-09-21T11:56:32.390Z,39.49
2022-09-21T12:00:11.551Z,40.71
2022-09-21T12:03:38.371Z,41.06
2022-09-21T12:07:02.014Z,41.01
2022-09-21T12:10:14.894Z,42.04
2022-09-21T12:13:23.215Z,42.46
2022-09-21T12:16:41.893Z,42.70
2022-09-21T12:20:02.414Z,42.28
2022-09-21T12:23:14.880Z,43.25
2022-09-21T12:26:23.954Z,42.31
2022-09-21T12:29:44.446Z,41.86
2022-09-21T12:33:01.715Z,41.12
2022-09-21T12:36:17.234Z,45.54
2022-09-21T12:39:30.150Z,44.35
2022-09-21T12:42:54.303Z,44.73
2022-09-21T12:46:22.406Z,44.32
2022-09-21T12:49:31.485Z,42.37
2022-09-21T12:52:34.917Z,43.52
2022-09-21T12:56:12.621Z,44.43
2022-09-21T12:59:35.359Z,43.56
2022-09-21T13:03:10.654Z,43.78
2022-09-21T13:06:27.114Z,44.25
2022-09-21T13:09:31.021Z,45.76
2022-09-21T13:12:40.155Z,45.39
2022-09-21T13:15:46.080Z,44.82
2022-09-21T13:18:55.850Z,46.04
2022-09-21T13:22:18.932Z,46.03
2022-09-21T13:25:24.593Z,45.76
2022-09-21T13:29:04.241Z,45.77
2022-09-21T13:32:12.489Z,45.98
2022-09-21T13:36:00.847Z,45.94
2022-09-21T13:39:05.414Z,45.74
2022-09-21T13:42:30.709Z,45.06
2022-09-21T13:45:35.779Z,45.42
2022-09-21T13:48:38.282Z,44.88
2022-09-21T13:52:12.886Z,47.00
2022-09-21T13:55:21.153Z,45.15
2022-09-21T13:58:32.115Z,44.92
2022-09-21T14:01:46.732Z,44.64
2022-09-21T14:04:50.970Z,44.46
2022-09-21T14:08:01.002Z,43.26
2022-09-21T14:11:34.651Z,43.69
2022-09-21T14:14:38.375Z,43.98
2022-09-21T14:17:41.056Z,44.51
2022-09-21T14:21:09.565Z,43.32
2022-09-21T14:24:36.175Z,43.91
2022-09-21T14:27:45.833Z,45.25
2022-09-21T14:30:54.362Z,45.34
2022-09-21T14:34:00.001Z,44.53
2022-09-21T14:37:11.761Z,45.00
2022-09-21T14:40:23.618Z,47.48
2022-09-21T14:43:34.426Z,45.39
2022-09-21T14:46:48.995Z,45.02
2022-09-21T14:50:14.410Z,45.50
2022-09-21T14:53:42.476Z,45.09
2022-09-21T14:57:00.172Z,44.31
2022-09-21T15:00:14.278Z,45.62
2022-09-21T15:03:31.666Z,45.26
2022-09-21T15:06:57.525Z,45.83
2022-09-21T15:10:29.186Z,46.46
2022-09-21T15:13:49.524Z,46.62
